sensor_id;sensor_type;location;lat;lon;timestamp;P1;durP1;ratioP1;P2;durP2;ratioP2
60700;SDS011;46541;49.894;10.886;2023-06-19T00:00:28;12.52;;;9.05;;
60700;SDS011;46541;49.894;10.886;2023-06-19T00:02:56;12.45;;;8.52;;
60700;SDS011;46541;49.894;10.886;2023-06-19T00:05:23;11.02;;;9.07;;
60700;SDS011;46541;49.894;10.886;2023-06-19T00:07:51;11.88;;;8.73;;
60700;SDS011;46541;49.894;10.886;2023-06-19T00:10:18;12.73;;;8.30;;
60700;SDS011;46541;49.894;10.886;2023-06-19T00:12:46;12.95;;;8.55;;
60700;SDS011;46541;49.894;10.886;2023-06-19T00:15:13;8.48;;;7.50;;
60700;SDS011;46541;49.894;10.886;2023-06-19T00:17:40;8.43;;;7.53;;
60700;SDS011;46541;49.894;10.886;2023-06-19T00:20:08;10.05;;;7.57;;
60700;SDS011;46541;49.894;10.886;2023-06-19T00:22:35;12.05;;;8.20;;
60700;SDS011;46541;49.894;10.886;2023-06-19T00:25:02;14.90;;;8.27;;
60700;SDS011;46541;49.894;10.886;2023-06-19T00:27:29;11.70;;;8.73;;
60700;SDS011;46541;49.894;10.886;2023-06-19T00:29:56;10.30;;;8.02;;
60700;SDS011;46541;49.894;10.886;2023-06-19T00:32:28;10.68;;;7.97;;
60700;SDS011;46541;49.894;10.886;2023-06-19T00:34:55;12.50;;;8.38;;
60700;SDS011;46541;49.894;10.886;2023-06-19T00:37:22;11.65;;;8.82;;
60700;SDS011;46541;49.894;10.886;2023-06-19T00:39:49;12.68;;;8.98;;
60700;SDS011;46541;49.894;10.886;2023-06-19T00:42:16;12.25;;;9.35;;
60700;SDS011;46541;49.894;10.886;2023-06-19T00:44:43;11.07;;;8.98;;
60700;SDS011;46541;49.894;10.886;2023-06-19T00:47:10;9.65;;;8.45;;
60700;SDS011;46541;49.894;10.886;2023-06-19T00:49:37;10.02;;;8.60;;
60700;SDS011;46541;49.894;10.886;2023-06-19T00:52:04;10.30;;;8.75;;
60700;SDS011;46541;49.894;10.886;2023-06-19T00:54:31;11.30;;;8.50;;
60700;SDS011;46541;49.894;10.886;2023-06-19T00:56:58;17.17;;;9.57;;
60700;SDS011;46541;49.894;10.886;2023-06-19T00:59:26;12.00;;;8.93;;
60700;SDS011;46541;49.894;10.886;2023-06-19T01:01:53;11.98;;;9.35;;
60700;SDS011;46541;49.894;10.886;2023-06-19T01:04:20;12.48;;;8.55;;
60700;SDS011;46541;49.894;10.886;2023-06-19T01:09:16;11.82;;;9.30;;
60700;SDS011;46541;49.894;10.886;2023-06-19T01:11:47;13.63;;;9.07;;
60700;SDS011;46541;49.894;10.886;2023-06-19T01:14:18;12.48;;;9.05;;
60700;SDS011;46541;49.894;10.886;2023-06-19T01:16:51;12.55;;;8.55;;
60700;SDS011;46541;49.894;10.886;2023-06-19T01:19:19;14.32;;;9.40;;
60700;SDS011;46541;49.894;10.886;2023-06-19T01:21:47;9.13;;;8.23;;
60700;SDS011;46541;49.894;10.886;2023-06-19T01:24:15;10.27;;;7.95;;
60700;SDS011;46541;49.894;10.886;2023-06-19T01:26:42;10.13;;;8.50;;
60700;SDS011;46541;49.894;10.886;2023-06-19T01:29:12;12.57;;;8.55;;
60700;SDS011;46541;49.894;10.886;2023-06-19T01:31:54;9.40;;;8.15;;
60700;SDS011;46541;49.894;10.886;2023-06-19T01:34:28;12.23;;;8.57;;
60700;SDS011;46541;49.894;10.886;2023-06-19T01:36:56;12.57;;;8.73;;
60700;SDS011;46541;49.894;10.886;2023-06-19T01:39:24;9.43;;;8.00;;
60700;SDS011;46541;49.894;10.886;2023-06-19T01:41:51;10.20;;;8.65;;
60700;SDS011;46541;49.894;10.886;2023-06-19T01:44:20;11.02;;;9.02;;
60700;SDS011;46541;49.894;10.886;2023-06-19T01:46:50;11.85;;;9.85;;
60700;SDS011;46541;49.894;10.886;2023-06-19T01:49:17;15.00;;;9.50;;
60700;SDS011;46541;49.894;10.886;2023-06-19T01:51:44;13.13;;;9.23;;
60700;SDS011;46541;49.894;10.886;2023-06-19T01:54:11;12.93;;;9.00;;
60700;SDS011;46541;49.894;10.886;2023-06-19T01:56:38;9.45;;;7.82;;
60700;SDS011;46541;49.894;10.886;2023-06-19T01:59:05;10.57;;;8.05;;
60700;SDS011;46541;49.894;10.886;2023-06-19T02:01:32;11.65;;;8.13;;
60700;SDS011;46541;49.894;10.886;2023-06-19T02:03:58;10.73;;;7.75;;
60700;SDS011;46541;49.894;10.886;2023-06-19T02:06:25;10.80;;;8.40;;
60700;SDS011;46541;49.894;10.886;2023-06-19T02:08:52;13.90;;;8.18;;
60700;SDS011;46541;49.894;10.886;2023-06-19T02:11:19;9.27;;;8.27;;
60700;SDS011;46541;49.894;10.886;2023-06-19T02:13:47;10.02;;;8.23;;
60700;SDS011;46541;49.894;10.886;2023-06-19T02:16:13;10.52;;;8.90;;
60700;SDS011;46541;49.894;10.886;2023-06-19T02:18:40;13.95;;;8.57;;
60700;SDS011;46541;49.894;10.886;2023-06-19T02:21:07;10.13;;;8.50;;
60700;SDS011;46541;49.894;10.886;2023-06-19T02:23:33;10.70;;;8.10;;
60700;SDS011;46541;49.894;10.886;2023-06-19T02:26:00;9.15;;;8.02;;
60700;SDS011;46541;49.894;10.886;2023-06-19T02:28:27;9.65;;;8.60;;
60700;SDS011;46541;49.894;10.886;2023-06-19T02:30:54;12.32;;;8.27;;
60700;SDS011;46541;49.894;10.886;2023-06-19T02:33:21;9.27;;;8.05;;
60700;SDS011;46541;49.894;10.886;2023-06-19T02:35:47;11.57;;;8.23;;
60700;SDS011;46541;49.894;10.886;2023-06-19T02:38:14;10.77;;;8.05;;
60700;SDS011;46541;49.894;10.886;2023-06-19T02:40:41;9.65;;;8.35;;
60700;SDS011;46541;49.894;10.886;2023-06-19T02:43:08;11.00;;;8.10;;
60700;SDS011;46541;49.894;10.886;2023-06-19T02:45:34;9.45;;;7.72;;
60700;SDS011;46541;49.894;10.886;2023-06-19T02:48:01;9.27;;;7.88;;
60700;SDS011;46541;49.894;10.886;2023-06-19T02:50:28;10.07;;;7.18;;
60700;SDS011;46541;49.894;10.886;2023-06-19T02:52:55;9.55;;;7.50;;
60700;SDS011;46541;49.894;10.886;2023-06-19T02:55:21;9.70;;;7.90;;
60700;SDS011;46541;49.894;10.886;2023-06-19T02:57:48;10.98;;;7.88;;
60700;SDS011;46541;49.894;10.886;2023-06-19T03:00:15;10.80;;;8.43;;
60700;SDS011;46541;49.894;10.886;2023-06-19T03:02:42;11.32;;;8.82;;
60700;SDS011;46541;49.894;10.886;2023-06-19T03:05:11;10.23;;;8.32;;
60700;SDS011;46541;49.894;10.886;2023-06-19T03:07:41;10.45;;;8.75;;
60700;SDS011;46541;49.894;10.886;2023-06-19T03:10:08;10.40;;;8.32;;
60700;SDS011;46541;49.894;10.886;2023-06-19T03:12:35;10.00;;;8.45;;
60700;SDS011;46541;49.894;10.886;2023-06-19T03:15:01;10.45;;;7.95;;
60700;SDS011;46541;49.894;10.886;2023-06-19T03:17:28;11.25;;;8.52;;
60700;SDS011;46541;49.894;10.886;2023-06-19T03:19:55;12.20;;;8.00;;
60700;SDS011;46541;49.894;10.886;2023-06-19T03:22:22;11.07;;;9.30;;
60700;SDS011;46541;49.894;10.886;2023-06-19T03:24:49;11.82;;;8.07;;
60700;SDS011;46541;49.894;10.886;2023-06-19T03:27:16;12.90;;;9.18;;
60700;SDS011;46541;49.894;10.886;2023-06-19T03:29:43;10.95;;;8.93;;
60700;SDS011;46541;49.894;10.886;2023-06-19T03:32:09;11.88;;;8.52;;
60700;SDS011;46541;49.894;10.886;2023-06-19T03:34:36;11.20;;;9.02;;
60700;SDS011;46541;49.894;10.886;2023-06-19T03:37:03;11.50;;;8.68;;
60700;SDS011;46541;49.894;10.886;2023-06-19T03:39:30;13.93;;;9.00;;
60700;SDS011;46541;49.894;10.886;2023-06-19T03:41:57;12.85;;;8.45;;
60700;SDS011;46541;49.894;10.886;2023-06-19T03:44:23;14.40;;;10.85;;
60700;SDS011;46541;49.894;10.886;2023-06-19T03:46:50;9.15;;;8.15;;
60700;SDS011;46541;49.894;10.886;2023-06-19T03:49:17;9.48;;;8.32;;
60700;SDS011;46541;49.894;10.886;2023-06-19T03:51:44;9.90;;;8.52;;
60700;SDS011;46541;49.894;10.886;2023-06-19T03:54:11;11.38;;;9.43;;
60700;SDS011;46541;49.894;10.886;2023-06-19T03:56:38;9.30;;;7.55;;
60700;SDS011;46541;49.894;10.886;2023-06-19T03:59:05;9.50;;;7.43;;
60700;SDS011;46541;49.894;10.886;2023-06-19T04:01:31;11.52;;;7.75;;
60700;SDS011;46541;49.894;10.886;2023-06-19T04:03:58;7.90;;;7.00;;
60700;SDS011;46541;49.894;10.886;2023-06-19T04:06:25;7.35;;;6.57;;
60700;SDS011;46541;49.894;10.886;2023-06-19T04:08:52;12.07;;;9.13;;
60700;SDS011;46541;49.894;10.886;2023-06-19T04:11:19;9.95;;;7.80;;
60700;SDS011;46541;49.894;10.886;2023-06-19T04:13:46;12.30;;;9.60;;
60700;SDS011;46541;49.894;10.886;2023-06-19T04:16:13;17.42;;;11.65;;
60700;SDS011;46541;49.894;10.886;2023-06-19T04:18:40;9.23;;;7.03;;
60700;SDS011;46541;49.894;10.886;2023-06-19T04:21:07;8.10;;;7.13;;
60700;SDS011;46541;49.894;10.886;2023-06-19T04:23:33;12.07;;;8.88;;
60700;SDS011;46541;49.894;10.886;2023-06-19T04:26:00;7.63;;;6.65;;
60700;SDS011;46541;49.894;10.886;2023-06-19T04:28:28;10.18;;;6.78;;
60700;SDS011;46541;49.894;10.886;2023-06-19T04:30:54;9.02;;;6.85;;
60700;SDS011;46541;49.894;10.886;2023-06-19T04:33:27;6.97;;;6.15;;
60700;SDS011;46541;49.894;10.886;2023-06-19T04:35:55;9.73;;;7.07;;
60700;SDS011;46541;49.894;10.886;2023-06-19T04:38:22;9.77;;;7.20;;
60700;SDS011;46541;49.894;10.886;2023-06-19T04:40:52;8.48;;;6.47;;
60700;SDS011;46541;49.894;10.886;2023-06-19T04:43:19;8.23;;;6.97;;
60700;SDS011;46541;49.894;10.886;2023-06-19T04:45:46;8.32;;;6.63;;
60700;SDS011;46541;49.894;10.886;2023-06-19T04:48:12;10.93;;;8.23;;
60700;SDS011;46541;49.894;10.886;2023-06-19T04:50:40;8.50;;;6.65;;
60700;SDS011;46541;49.894;10.886;2023-06-19T04:53:07;9.15;;;7.40;;
60700;SDS011;46541;49.894;10.886;2023-06-19T04:55:33;12.20;;;8.52;;
60700;SDS011;46541;49.894;10.886;2023-06-19T04:58:00;8.27;;;7.38;;
60700;SDS011;46541;49.894;10.886;2023-06-19T05:00:27;9.50;;;6.85;;
60700;SDS011;46541;49.894;10.886;2023-06-19T05:02:54;11.25;;;6.95;;
60700;SDS011;46541;49.894;10.886;2023-06-19T05:05:26;10.00;;;7.15;;
60700;SDS011;46541;49.894;10.886;2023-06-19T05:07:54;14.18;;;7.90;;
60700;SDS011;46541;49.894;10.886;2023-06-19T05:10:20;11.30;;;7.50;;
60700;SDS011;46541;49.894;10.886;2023-06-19T05:12:48;10.10;;;6.93;;
60700;SDS011;46541;49.894;10.886;2023-06-19T05:15:15;10.77;;;7.45;;
60700;SDS011;46541;49.894;10.886;2023-06-19T05:17:41;10.20;;;7.53;;
60700;SDS011;46541;49.894;10.886;2023-06-19T05:20:08;12.10;;;7.70;;
60700;SDS011;46541;49.894;10.886;2023-06-19T05:22:36;10.07;;;8.20;;
60700;SDS011;46541;49.894;10.886;2023-06-19T05:25:03;9.82;;;7.53;;
60700;SDS011;46541;49.894;10.886;2023-06-19T05:27:30;13.80;;;7.72;;
60700;SDS011;46541;49.894;10.886;2023-06-19T05:29:57;9.68;;;7.80;;
60700;SDS011;46541;49.894;10.886;2023-06-19T05:32:23;12.65;;;8.30;;
60700;SDS011;46541;49.894;10.886;2023-06-19T05:34:50;8.57;;;7.20;;
60700;SDS011;46541;49.894;10.886;2023-06-19T05:37:17;9.82;;;8.32;;
60700;SDS011;46541;49.894;10.886;2023-06-19T05:39:44;11.00;;;7.53;;
60700;SDS011;46541;49.894;10.886;2023-06-19T05:42:10;9.27;;;7.82;;
60700;SDS011;46541;49.894;10.886;2023-06-19T05:44:37;12.73;;;8.07;;
60700;SDS011;46541;49.894;10.886;2023-06-19T05:47:04;10.57;;;8.30;;
60700;SDS011;46541;49.894;10.886;2023-06-19T05:49:31;12.88;;;8.68;;
60700;SDS011;46541;49.894;10.886;2023-06-19T05:51:58;12.82;;;8.18;;
60700;SDS011;46541;49.894;10.886;2023-06-19T05:54:25;10.77;;;7.97;;
60700;SDS011;46541;49.894;10.886;2023-06-19T05:56:52;9.20;;;8.18;;
60700;SDS011;46541;49.894;10.886;2023-06-19T05:59:19;12.48;;;9.10;;
60700;SDS011;46541;49.894;10.886;2023-06-19T06:01:46;21.15;;;9.60;;
60700;SDS011;46541;49.894;10.886;2023-06-19T06:04:13;9.52;;;8.50;;
60700;SDS011;46541;49.894;10.886;2023-06-19T06:06:40;13.65;;;9.68;;
60700;SDS011;46541;49.894;10.886;2023-06-19T06:09:07;14.65;;;10.38;;
60700;SDS011;46541;49.894;10.886;2023-06-19T06:11:37;12.27;;;9.93;;
60700;SDS011;46541;49.894;10.886;2023-06-19T06:14:04;13.48;;;9.38;;
60700;SDS011;46541;49.894;10.886;2023-06-19T06:16:31;10.73;;;8.65;;
60700;SDS011;46541;49.894;10.886;2023-06-19T06:18:57;10.65;;;9.30;;
60700;SDS011;46541;49.894;10.886;2023-06-19T06:21:25;9.68;;;8.60;;
60700;SDS011;46541;49.894;10.886;2023-06-19T06:23:52;11.23;;;7.45;;
60700;SDS011;46541;49.894;10.886;2023-06-19T06:26:20;12.40;;;7.95;;
60700;SDS011;46541;49.894;10.886;2023-06-19T06:28:47;11.82;;;8.50;;
60700;SDS011;46541;49.894;10.886;2023-06-19T06:31:14;9.27;;;7.57;;
60700;SDS011;46541;49.894;10.886;2023-06-19T06:33:41;9.98;;;8.10;;
60700;SDS011;46541;49.894;10.886;2023-06-19T06:36:08;13.15;;;8.35;;
60700;SDS011;46541;49.894;10.886;2023-06-19T06:38:34;8.73;;;7.32;;
60700;SDS011;46541;49.894;10.886;2023-06-19T06:41:01;11.30;;;7.63;;
60700;SDS011;46541;49.894;10.886;2023-06-19T06:43:28;9.90;;;7.40;;
60700;SDS011;46541;49.894;10.886;2023-06-19T06:45:55;7.50;;;6.75;;
60700;SDS011;46541;49.894;10.886;2023-06-19T06:48:22;10.15;;;7.97;;
60700;SDS011;46541;49.894;10.886;2023-06-19T06:50:49;9.93;;;8.00;;
60700;SDS011;46541;49.894;10.886;2023-06-19T06:53:15;10.88;;;7.78;;
60700;SDS011;46541;49.894;10.886;2023-06-19T06:55:42;9.95;;;8.73;;
60700;SDS011;46541;49.894;10.886;2023-06-19T06:58:09;9.82;;;7.78;;
60700;SDS011;46541;49.894;10.886;2023-06-19T07:00:36;8.02;;;6.95;;
60700;SDS011;46541;49.894;10.886;2023-06-19T07:03:03;8.55;;;7.03;;
60700;SDS011;46541;49.894;10.886;2023-06-19T07:05:30;9.02;;;7.28;;
60700;SDS011;46541;49.894;10.886;2023-06-19T07:07:57;12.15;;;8.15;;
60700;SDS011;46541;49.894;10.886;2023-06-19T07:10:24;9.45;;;7.40;;
60700;SDS011;46541;49.894;10.886;2023-06-19T07:12:51;10.32;;;7.30;;
60700;SDS011;46541;49.894;10.886;2023-06-19T07:15:18;9.07;;;7.07;;
60700;SDS011;46541;49.894;10.886;2023-06-19T07:17:45;9.05;;;6.70;;
60700;SDS011;46541;49.894;10.886;2023-06-19T07:20:12;11.25;;;7.50;;
60700;SDS011;46541;49.894;10.886;2023-06-19T07:22:40;9.48;;;6.72;;
60700;SDS011;46541;49.894;10.886;2023-06-19T07:25:09;11.15;;;7.88;;
60700;SDS011;46541;49.894;10.886;2023-06-19T07:27:37;10.68;;;7.25;;
60700;SDS011;46541;49.894;10.886;2023-06-19T07:30:04;9.73;;;7.45;;
60700;SDS011;46541;49.894;10.886;2023-06-19T07:32:33;10.75;;;7.57;;
60700;SDS011;46541;49.894;10.886;2023-06-19T07:34:59;9.68;;;6.80;;
60700;SDS011;46541;49.894;10.886;2023-06-19T07:37:26;14.63;;;10.07;;
60700;SDS011;46541;49.894;10.886;2023-06-19T07:39:53;9.02;;;7.05;;
60700;SDS011;46541;49.894;10.886;2023-06-19T07:42:20;23.17;;;13.05;;
60700;SDS011;46541;49.894;10.886;2023-06-19T07:44:47;7.75;;;6.63;;
60700;SDS011;46541;49.894;10.886;2023-06-19T07:47:14;10.50;;;6.80;;
60700;SDS011;46541;49.894;10.886;2023-06-19T07:49:42;11.68;;;6.63;;
60700;SDS011;46541;49.894;10.886;2023-06-19T07:52:09;11.73;;;6.80;;
60700;SDS011;46541;49.894;10.886;2023-06-19T07:54:36;8.80;;;7.05;;
60700;SDS011;46541;49.894;10.886;2023-06-19T07:57:13;8.23;;;6.40;;
60700;SDS011;46541;49.894;10.886;2023-06-19T07:59:40;8.80;;;6.38;;
60700;SDS011;46541;49.894;10.886;2023-06-19T08:02:06;10.52;;;6.85;;
60700;SDS011;46541;49.894;10.886;2023-06-19T08:04:34;9.77;;;6.57;;
60700;SDS011;46541;49.894;10.886;2023-06-19T08:07:00;9.93;;;7.22;;
60700;SDS011;46541;49.894;10.886;2023-06-19T08:09:28;9.27;;;6.95;;
60700;SDS011;46541;49.894;10.886;2023-06-19T08:11:54;8.80;;;6.05;;
60700;SDS011;46541;49.894;10.886;2023-06-19T08:14:21;10.05;;;6.82;;
60700;SDS011;46541;49.894;10.886;2023-06-19T08:16:48;10.52;;;7.40;;
60700;SDS011;46541;49.894;10.886;2023-06-19T08:19:15;8.68;;;6.40;;
60700;SDS011;46541;49.894;10.886;2023-06-19T08:21:41;6.93;;;5.97;;
60700;SDS011;46541;49.894;10.886;2023-06-19T08:24:08;6.22;;;5.60;;
60700;SDS011;46541;49.894;10.886;2023-06-19T08:26:35;10.48;;;6.30;;
60700;SDS011;46541;49.894;10.886;2023-06-19T08:29:02;11.90;;;6.50;;
60700;SDS011;46541;49.894;10.886;2023-06-19T08:31:29;8.45;;;6.15;;
60700;SDS011;46541;49.894;10.886;2023-06-19T08:33:56;9.20;;;5.78;;
60700;SDS011;46541;49.894;10.886;2023-06-19T08:36:23;9.50;;;6.65;;
60700;SDS011;46541;49.894;10.886;2023-06-19T08:38:50;7.22;;;5.82;;
60700;SDS011;46541;49.894;10.886;2023-06-19T08:41:19;9.75;;;7.18;;
60700;SDS011;46541;49.894;10.886;2023-06-19T08:43:46;10.80;;;7.60;;
60700;SDS011;46541;49.894;10.886;2023-06-19T08:46:16;8.93;;;6.20;;
60700;SDS011;46541;49.894;10.886;2023-06-19T08:48:44;16.40;;;10.15;;
60700;SDS011;46541;49.894;10.886;2023-06-19T08:51:12;7.40;;;6.70;;
60700;SDS011;46541;49.894;10.886;2023-06-19T08:53:49;9.70;;;5.65;;
60700;SDS011;46541;49.894;10.886;2023-06-19T08:56:20;9.52;;;6.03;;
60700;SDS011;46541;49.894;10.886;2023-06-19T08:58:47;9.55;;;6.43;;
60700;SDS011;46541;49.894;10.886;2023-06-19T09:01:16;9.98;;;6.38;;
60700;SDS011;46541;49.894;10.886;2023-06-19T09:03:45;9.23;;;7.63;;
60700;SDS011;46541;49.894;10.886;2023-06-19T09:06:16;9.57;;;7.63;;
60700;SDS011;46541;49.894;10.886;2023-06-19T09:08:43;6.65;;;5.97;;
60700;SDS011;46541;49.894;10.886;2023-06-19T09:11:11;9.82;;;5.90;;
60700;SDS011;46541;49.894;10.886;2023-06-19T09:13:38;18.05;;;10.75;;
60700;SDS011;46541;49.894;10.886;2023-06-19T09:16:05;7.90;;;6.53;;
60700;SDS011;46541;49.894;10.886;2023-06-19T09:18:54;7.03;;;6.18;;
60700;SDS011;46541;49.894;10.886;2023-06-19T09:21:21;6.50;;;5.15;;
60700;SDS011;46541;49.894;10.886;2023-06-19T09:23:51;8.38;;;6.45;;
60700;SDS011;46541;49.894;10.886;2023-06-19T09:26:18;6.55;;;5.75;;
60700;SDS011;46541;49.894;10.886;2023-06-19T09:28:46;7.00;;;5.20;;
60700;SDS011;46541;49.894;10.886;2023-06-19T09:31:16;8.80;;;7.20;;
60700;SDS011;46541;49.894;10.886;2023-06-19T09:33:43;10.43;;;6.63;;
60700;SDS011;46541;49.894;10.886;2023-06-19T09:36:10;6.10;;;5.50;;
60700;SDS011;46541;49.894;10.886;2023-06-19T09:38:37;7.55;;;5.55;;
60700;SDS011;46541;49.894;10.886;2023-06-19T09:41:06;7.97;;;5.45;;
60700;SDS011;46541;49.894;10.886;2023-06-19T09:43:37;9.35;;;6.63;;
60700;SDS011;46541;49.894;10.886;2023-06-19T09:46:06;7.18;;;6.35;;
60700;SDS011;46541;49.894;10.886;2023-06-19T09:48:34;7.75;;;5.53;;
60700;SDS011;46541;49.894;10.886;2023-06-19T09:51:21;7.63;;;5.25;;
60700;SDS011;46541;49.894;10.886;2023-06-19T09:53:54;6.80;;;4.60;;
60700;SDS011;46541;49.894;10.886;2023-06-19T09:56:24;8.60;;;5.18;;
60700;SDS011;46541;49.894;10.886;2023-06-19T09:58:53;8.63;;;5.55;;
60700;SDS011;46541;49.894;10.886;2023-06-19T10:01:23;13.40;;;6.68;;
60700;SDS011;46541;49.894;10.886;2023-06-19T10:04:00;15.38;;;8.90;;
60700;SDS011;46541;49.894;10.886;2023-06-19T10:06:32;9.68;;;6.72;;
60700;SDS011;46541;49.894;10.886;2023-06-19T10:09:05;6.88;;;6.00;;
60700;SDS011;46541;49.894;10.886;2023-06-19T10:14:22;6.97;;;5.10;;
60700;SDS011;46541;49.894;10.886;2023-06-19T10:16:50;8.80;;;5.40;;
60700;SDS011;46541;49.894;10.886;2023-06-19T10:19:21;11.02;;;7.18;;
60700;SDS011;46541;49.894;10.886;2023-06-19T10:21:49;5.95;;;4.43;;
60700;SDS011;46541;49.894;10.886;2023-06-19T10:24:19;10.65;;;5.47;;
60700;SDS011;46541;49.894;10.886;2023-06-19T10:26:59;7.63;;;5.80;;
60700;SDS011;46541;49.894;10.886;2023-06-19T10:29:37;6.15;;;5.47;;
60700;SDS011;46541;49.894;10.886;2023-06-19T10:32:06;5.57;;;3.95;;
60700;SDS011;46541;49.894;10.886;2023-06-19T10:34:33;5.82;;;4.70;;
60700;SDS011;46541;49.894;10.886;2023-06-19T10:37:01;5.82;;;3.72;;
60700;SDS011;46541;49.894;10.886;2023-06-19T10:39:27;4.80;;;4.10;;
60700;SDS011;46541;49.894;10.886;2023-06-19T10:41:54;5.85;;;4.00;;
60700;SDS011;46541;49.894;10.886;2023-06-19T10:44:22;9.15;;;7.68;;
60700;SDS011;46541;49.894;10.886;2023-06-19T10:46:52;5.90;;;4.85;;
60700;SDS011;46541;49.894;10.886;2023-06-19T10:49:19;5.57;;;4.03;;
60700;SDS011;46541;49.894;10.886;2023-06-19T10:51:48;6.80;;;5.47;;
60700;SDS011;46541;49.894;10.886;2023-06-19T10:54:15;7.70;;;5.05;;
60700;SDS011;46541;49.894;10.886;2023-06-19T10:56:41;5.00;;;4.50;;
60700;SDS011;46541;49.894;10.886;2023-06-19T10:59:10;4.13;;;3.72;;
60700;SDS011;46541;49.894;10.886;2023-06-19T11:01:41;6.80;;;4.82;;
60700;SDS011;46541;49.894;10.886;2023-06-19T11:04:11;5.25;;;4.75;;
60700;SDS011;46541;49.894;10.886;2023-06-19T11:06:39;12.13;;;9.20;;
60700;SDS011;46541;49.894;10.886;2023-06-19T11:09:07;6.63;;;5.90;;
60700;SDS011;46541;49.894;10.886;2023-06-19T11:14:09;5.00;;;4.50;;
60700;SDS011;46541;49.894;10.886;2023-06-19T11:16:39;6.15;;;4.53;;
60700;SDS011;46541;49.894;10.886;2023-06-19T11:19:08;7.07;;;5.03;;
60700;SDS011;46541;49.894;10.886;2023-06-19T11:21:40;6.72;;;4.70;;
60700;SDS011;46541;49.894;10.886;2023-06-19T11:24:13;5.90;;;5.13;;
60700;SDS011;46541;49.894;10.886;2023-06-19T11:26:41;7.25;;;5.40;;
60700;SDS011;46541;49.894;10.886;2023-06-19T11:29:19;6.82;;;4.45;;
60700;SDS011;46541;49.894;10.886;2023-06-19T11:31:51;6.07;;;4.22;;
60700;SDS011;46541;49.894;10.886;2023-06-19T11:34:30;5.88;;;4.35;;
60700;SDS011;46541;49.894;10.886;2023-06-19T11:36:59;5.60;;;4.55;;
60700;SDS011;46541;49.894;10.886;2023-06-19T11:39:25;6.28;;;4.75;;
60700;SDS011;46541;49.894;10.886;2023-06-19T11:41:54;6.32;;;4.50;;
60700;SDS011;46541;49.894;10.886;2023-06-19T11:44:20;8.80;;;5.15;;
60700;SDS011;46541;49.894;10.886;2023-06-19T11:46:47;8.43;;;4.88;;
60700;SDS011;46541;49.894;10.886;2023-06-19T11:51:44;6.15;;;4.45;;
60700;SDS011;46541;49.894;10.886;2023-06-19T11:54:12;7.13;;;4.53;;
60700;SDS011;46541;49.894;10.886;2023-06-19T11:56:43;5.78;;;4.63;;
60700;SDS011;46541;49.894;10.886;2023-06-19T11:59:10;7.60;;;4.85;;
60700;SDS011;46541;49.894;10.886;2023-06-19T12:01:37;4.85;;;4.30;;
60700;SDS011;46541;49.894;10.886;2023-06-19T12:04:05;6.35;;;4.53;;
60700;SDS011;46541;49.894;10.886;2023-06-19T12:06:32;8.40;;;5.15;;
60700;SDS011;46541;49.894;10.886;2023-06-19T12:09:01;7.07;;;4.07;;
60700;SDS011;46541;49.894;10.886;2023-06-19T12:11:30;5.00;;;4.50;;
60700;SDS011;46541;49.894;10.886;2023-06-19T12:13:57;6.57;;;4.30;;
60700;SDS011;46541;49.894;10.886;2023-06-19T12:16:24;5.15;;;4.75;;
60700;SDS011;46541;49.894;10.886;2023-06-19T12:18:52;7.95;;;4.07;;
60700;SDS011;46541;49.894;10.886;2023-06-19T12:21:19;4.82;;;4.43;;
60700;SDS011;46541;49.894;10.886;2023-06-19T12:24:01;6.05;;;5.15;;
60700;SDS011;46541;49.894;10.886;2023-06-19T12:26:28;7.90;;;4.75;;
60700;SDS011;46541;49.894;10.886;2023-06-19T12:28:55;8.63;;;4.95;;
60700;SDS011;46541;49.894;10.886;2023-06-19T12:31:21;5.65;;;5.05;;
60700;SDS011;46541;49.894;10.886;2023-06-19T12:33:48;6.07;;;4.85;;
60700;SDS011;46541;49.894;10.886;2023-06-19T12:36:15;7.00;;;4.60;;
60700;SDS011;46541;49.894;10.886;2023-06-19T12:38:42;8.70;;;4.50;;
60700;SDS011;46541;49.894;10.886;2023-06-19T12:41:09;6.65;;;5.30;;
60700;SDS011;46541;49.894;10.886;2023-06-19T12:43:36;5.85;;;4.00;;
60700;SDS011;46541;49.894;10.886;2023-06-19T12:46:02;4.40;;;3.97;;
60700;SDS011;46541;49.894;10.886;2023-06-19T12:48:29;5.03;;;4.53;;
60700;SDS011;46541;49.894;10.886;2023-06-19T12:50:56;4.88;;;4.47;;
60700;SDS011;46541;49.894;10.886;2023-06-19T12:53:23;8.88;;;4.65;;
60700;SDS011;46541;49.894;10.886;2023-06-19T12:55:58;5.20;;;4.72;;
60700;SDS011;46541;49.894;10.886;2023-06-19T12:58:30;4.78;;;4.15;;
60700;SDS011;46541;49.894;10.886;2023-06-19T13:00:56;5.05;;;4.55;;
60700;SDS011;46541;49.894;10.886;2023-06-19T13:03:23;7.82;;;4.10;;
60700;SDS011;46541;49.894;10.886;2023-06-19T13:05:50;7.80;;;4.60;;
60700;SDS011;46541;49.894;10.886;2023-06-19T13:08:17;7.05;;;4.60;;
60700;SDS011;46541;49.894;10.886;2023-06-19T13:10:44;7.28;;;4.38;;
60700;SDS011;46541;49.894;10.886;2023-06-19T13:13:11;8.30;;;3.92;;
60700;SDS011;46541;49.894;10.886;2023-06-19T13:15:38;5.25;;;4.38;;
60700;SDS011;46541;49.894;10.886;2023-06-19T13:18:05;9.65;;;4.40;;
60700;SDS011;46541;49.894;10.886;2023-06-19T13:20:32;4.57;;;4.18;;
60700;SDS011;46541;49.894;10.886;2023-06-19T13:22:59;6.82;;;4.60;;
60700;SDS011;46541;49.894;10.886;2023-06-19T13:25:26;6.72;;;4.32;;
60700;SDS011;46541;49.894;10.886;2023-06-19T13:27:53;5.32;;;4.13;;
60700;SDS011;46541;49.894;10.886;2023-06-19T13:30:19;6.07;;;4.13;;
60700;SDS011;46541;49.894;10.886;2023-06-19T13:32:46;5.22;;;4.70;;
60700;SDS011;46541;49.894;10.886;2023-06-19T13:35:13;5.88;;;5.28;;
60700;SDS011;46541;49.894;10.886;2023-06-19T13:37:40;4.80;;;3.72;;
60700;SDS011;46541;49.894;10.886;2023-06-19T13:40:07;20.05;;;16.08;;
60700;SDS011;46541;49.894;10.886;2023-06-19T13:42:34;5.22;;;4.40;;
60700;SDS011;46541;49.894;10.886;2023-06-19T13:45:01;6.90;;;5.18;;
60700;SDS011;46541;49.894;10.886;2023-06-19T13:47:29;8.90;;;4.97;;
60700;SDS011;46541;49.894;10.886;2023-06-19T13:49:56;9.35;;;4.35;;
60700;SDS011;46541;49.894;10.886;2023-06-19T13:52:23;8.02;;;4.28;;
60700;SDS011;46541;49.894;10.886;2023-06-19T13:54:50;4.78;;;4.00;;
60700;SDS011;46541;49.894;10.886;2023-06-19T13:57:20;6.47;;;3.90;;
60700;SDS011;46541;49.894;10.886;2023-06-19T13:59:47;4.80;;;3.60;;
60700;SDS011;46541;49.894;10.886;2023-06-19T14:02:15;3.75;;;3.45;;
60700;SDS011;46541;49.894;10.886;2023-06-19T14:04:42;4.90;;;4.38;;
60700;SDS011;46541;49.894;10.886;2023-06-19T14:07:09;4.43;;;3.70;;
60700;SDS011;46541;49.894;10.886;2023-06-19T14:09:35;5.20;;;3.70;;
60700;SDS011;46541;49.894;10.886;2023-06-19T14:12:03;4.65;;;4.25;;
60700;SDS011;46541;49.894;10.886;2023-06-19T14:14:30;5.60;;;4.32;;
60700;SDS011;46541;49.894;10.886;2023-06-19T14:16:57;5.93;;;4.75;;
60700;SDS011;46541;49.894;10.886;2023-06-19T14:19:24;4.28;;;3.88;;
60700;SDS011;46541;49.894;10.886;2023-06-19T14:21:51;4.25;;;3.85;;
60700;SDS011;46541;49.894;10.886;2023-06-19T14:24:18;3.78;;;3.45;;
60700;SDS011;46541;49.894;10.886;2023-06-19T14:26:45;3.60;;;3.30;;
60700;SDS011;46541;49.894;10.886;2023-06-19T14:29:11;3.90;;;3.53;;
60700;SDS011;46541;49.894;10.886;2023-06-19T14:31:41;4.57;;;4.05;;
60700;SDS011;46541;49.894;10.886;2023-06-19T14:34:08;4.47;;;3.95;;
60700;SDS011;46541;49.894;10.886;2023-06-19T14:36:36;5.90;;;4.00;;
60700;SDS011;46541;49.894;10.886;2023-06-19T14:39:04;5.60;;;3.45;;
60700;SDS011;46541;49.894;10.886;2023-06-19T14:41:31;7.63;;;3.63;;